Time;durP1;ratioP1;P1;durP2;ratioP2;P2;SDS_P1;SDS_P2;PMS_P1;PMS_P2;Temp;Humidity;BMP_temperature;BMP_pressure;BME280_temperature;BME280_humidity;BME280_pressure;Samples;Min_cycle;Max_cycle;Signal;HPM_P1;HPM_P2
2021/09/20 00:00:41;;;;;;;3.70;2.10;;;;;;;;;;4995797;28;20065;-72
2021/09/20 00:03:07;;;;;;;4.15;2.08;;;;;;;;;;4996699;28;20031;-69
2021/09/20 00:05:33;;;;;;;4.65;2.17;;;;;;;;;;4996116;28;20031;-73
2021/09/20 00:07:59;;;;;;;5.68;2.30;;;;;;;;;;4996426;28;20027;-72
2021/09/20 00:10:25;;;;;;;4.82;2.20;;;;;;;;;;4996017;28;20058;-72
2021/09/20 00:12:52;;;;;;;7.30;2.50;;;;;;;;;;4995840;28;20034;-72
2021/09/20 00:15:18;;;;;;;8.32;2.30;;;;;;;;;;4995381;28;20027;-72
2021/09/20 00:17:44;;;;;;;4.05;2.83;;;;;;;;;;4995789;28;20081;-71
2021/09/20 00:20:11;;;;;;;6.75;2.40;;;;;;;;;;4995960;28;20109;-73
2021/09/20 00:22:37;;;;;;;7.00;2.33;;;;;;;;;;4995724;28;20053;-72
2021/09/20 00:25:04;;;;;;;4.63;2.25;;;;;;;;;;4995642;28;20030;-69
2021/09/20 00:27:30;;;;;;;4.38;2.60;;;;;;;;;;4995683;28;20469;-73
2021/09/20 00:29:56;;;;;;;4.95;2.50;;;;;;;;;;4995780;28;20029;-72
2021/09/20 00:32:23;;;;;;;6.93;2.40;;;;;;;;;;4995412;28;20030;-72
2021/09/20 00:34:49;;;;;;;5.63;2.50;;;;;;;;;;4995292;28;20038;-72
2021/09/20 00:37:15;;;;;;;5.95;2.90;;;;;;;;;;4995441;28;20112;-73
2021/09/20 00:39:41;;;;;;;8.68;2.55;;;;;;;;;;4995090;28;20027;-70
2021/09/20 00:42:07;;;;;;;4.82;2.33;;;;;;;;;;4995261;28;20027;-72
2021/09/20 00:44:34;;;;;;;3.97;2.40;;;;;;;;;;4995279;28;20073;-73
2021/09/20 00:47:00;;;;;;;3.35;2.30;;;;;;;;;;4995199;28;20018;-70
2021/09/20 00:49:26;;;;;;;6.63;2.55;;;;;;;;;;4995232;28;20084;-72
2021/09/20 00:51:52;;;;;;;6.47;2.38;;;;;;;;;;4995247;28;20036;-72
2021/09/20 00:54:19;;;;;;;8.13;2.38;;;;;;;;;;4995655;28;20015;-72
2021/09/20 00:56:45;;;;;;;6.50;2.50;;;;;;;;;;4995189;28;20027;-74
2021/09/20 00:59:11;;;;;;;4.78;2.30;;;;;;;;;;4995059;28;20400;-74
2021/09/20 01:01:37;;;;;;;3.53;2.30;;;;;;;;;;4995125;28;20054;-71
2021/09/20 01:04:03;;;;;;;7.78;2.50;;;;;;;;;;4995153;28;20054;-73
2021/09/20 01:06:30;;;;;;;8.23;3.75;;;;;;;;;;4995496;28;20137;-73
2021/09/20 01:08:56;;;;;;;9.77;3.50;;;;;;;;;;4994943;28;20015;-68
2021/09/20 01:11:22;;;;;;;4.68;2.30;;;;;;;;;;4995084;28;20073;-72
2021/09/20 01:13:49;;;;;;;7.20;2.50;;;;;;;;;;4995333;28;20030;-74
2021/09/20 01:16:15;;;;;;;6.78;2.75;;;;;;;;;;4994944;28;20054;-72
2021/09/20 01:18:41;;;;;;;7.63;2.40;;;;;;;;;;4995029;28;20022;-73
2021/09/20 01:21:07;;;;;;;4.57;2.20;;;;;;;;;;4995089;28;20081;-73
2021/09/20 01:23:33;;;;;;;7.32;2.95;;;;;;;;;;4994841;28;20388;-72
2021/09/20 01:25:59;;;;;;;4.68;2.42;;;;;;;;;;4995177;28;20045;-73
2021/09/20 01:28:26;;;;;;;4.60;2.22;;;;;;;;;;4997720;28;20022;-73
2021/09/20 01:30:52;;;;;;;6.00;2.38;;;;;;;;;;4998798;28;20050;-71
2021/09/20 01:33:18;;;;;;;6.47;2.88;;;;;;;;;;4998762;28;20081;-72
2021/09/20 01:35:44;;;;;;;10.65;3.55;;;;;;;;;;4998954;28;20026;-71
2021/09/20 01:38:10;;;;;;;3.63;1.83;;;;;;;;;;4998937;28;20069;-69
2021/09/20 01:40:36;;;;;;;3.58;2.20;;;;;;;;;;4998556;28;20037;-72
2021/09/20 01:43:03;;;;;;;5.97;2.28;;;;;;;;;;4998654;28;20030;-72
2021/09/20 01:45:29;;;;;;;4.70;3.00;;;;;;;;;;4998853;28;20042;-73
2021/09/20 01:47:55;;;;;;;6.43;2.10;;;;;;;;;;4998639;28;20018;-73
2021/09/20 01:50:22;;;;;;;4.80;2.38;;;;;;;;;;4998384;28;20026;-72
2021/09/20 01:52:48;;;;;;;2.80;1.90;;;;;;;;;;4998280;28;20032;-73
2021/09/20 01:55:15;;;;;;;3.90;2.08;;;;;;;;;;4998523;28;20057;-73
2021/09/20 01:57:41;;;;;;;5.15;2.83;;;;;;;;;;4998181;28;20029;-73
2021/09/20 02:00:09;;;;;;;8.13;3.25;;;;;;;;;;5002784;28;20050;-71
2021/09/20 02:02:35;;;;;;;4.03;2.30;;;;;;;;;;5017744;28;20446;-73
2021/09/20 02:05:01;;;;;;;10.55;2.00;;;;;;;;;;5017774;28;20108;-74
2021/09/20 02:07:27;;;;;;;6.40;2.58;;;;;;;;;;5017727;28;20095;-70
2021/09/20 02:09:53;;;;;;;3.25;2.13;;;;;;;;;;5017522;28;20022;-73
2021/09/20 02:12:19;;;;;;;5.75;2.42;;;;;;;;;;5017636;28;20033;-73
2021/09/20 02:14:45;;;;;;;9.07;3.17;;;;;;;;;;5017461;28;20034;-70
2021/09/20 02:17:11;;;;;;;9.18;3.38;;;;;;;;;;5017569;28;20123;-73
2021/09/20 02:19:39;;;;;;;3.67;2.20;;;;;;;;;;5017848;28;20022;-73
2021/09/20 02:22:06;;;;;;;6.35;2.67;;;;;;;;;;5016241;28;20455;-67
2021/09/20 02:24:32;;;;;;;4.63;2.30;;;;;;;;;;5016996;28;20114;-72
2021/09/20 02:26:58;;;;;;;6.13;2.33;;;;;;;;;;5017692;28;20028;-73
2021/09/20 02:29:24;;;;;;;4.07;1.98;;;;;;;;;;5017035;28;20090;-71
2021/09/20 02:31:50;;;;;;;5.00;2.00;;;;;;;;;;5016865;28;20018;-74
2021/09/20 02:34:17;;;;;;;5.80;2.17;;;;;;;;;;5016996;28;20022;-73
2021/09/20 02:36:44;;;;;;;7.00;2.45;;;;;;;;;;5017058;28;20061;-73
2021/09/20 02:39:10;;;;;;;7.10;2.33;;;;;;;;;;5016575;28;20025;-73
2021/09/20 02:41:36;;;;;;;16.05;3.20;;;;;;;;;;5017317;28;20045;-75
2021/09/20 02:44:03;;;;;;;4.47;2.30;;;;;;;;;;5016948;28;20080;-71
2021/09/20 02:46:29;;;;;;;8.35;2.55;;;;;;;;;;5016748;28;20029;-72
2021/09/20 02:48:55;;;;;;;5.55;2.58;;;;;;;;;;5017035;28;20025;-73
2021/09/20 02:51:21;;;;;;;5.07;2.20;;;;;;;;;;5017078;28;20119;-69
2021/09/20 02:53:47;;;;;;;7.15;2.20;;;;;;;;;;5016630;28;20025;-73
2021/09/20 02:56:13;;;;;;;4.78;2.38;;;;;;;;;;5016586;28;20092;-73
2021/09/20 02:58:39;;;;;;;2.97;2.05;;;;;;;;;;5016792;28;20531;-72
2021/09/20 03:01:06;;;;;;;2.60;2.03;;;;;;;;;;5016500;28;20057;-72
2021/09/20 03:03:32;;;;;;;8.73;2.50;;;;;;;;;;5016699;28;20094;-72
2021/09/20 03:05:58;;;;;;;5.57;2.28;;;;;;;;;;5016408;28;20084;-71
2021/09/20 03:08:24;;;;;;;10.98;2.50;;;;;;;;;;5016491;28;20050;-73
2021/09/20 03:10:50;;;;;;;7.40;2.38;;;;;;;;;;5015321;28;20415;-72
2021/09/20 03:13:16;;;;;;;6.15;2.20;;;;;;;;;;5015271;28;20056;-69
2021/09/20 03:15:42;;;;;;;5.65;2.45;;;;;;;;;;5016041;28;20091;-72
2021/09/20 03:18:08;;;;;;;4.35;2.35;;;;;;;;;;5016500;28;20125;-72
2021/09/20 03:20:34;;;;;;;4.93;2.17;;;;;;;;;;5016269;28;20026;-69
2021/09/20 03:23:01;;;;;;;5.22;2.10;;;;;;;;;;5016410;28;20030;-73
2021/09/20 03:25:27;;;;;;;8.10;2.20;;;;;;;;;;5016649;28;20029;-74
2021/09/20 03:27:53;;;;;;;4.43;2.00;;;;;;;;;;5015818;28;20432;-71
2021/09/20 03:30:19;;;;;;;8.07;2.50;;;;;;;;;;5016248;28;20068;-73
2021/09/20 03:32:46;;;;;;;7.63;2.97;;;;;;;;;;5016260;28;20037;-72
2021/09/20 03:35:14;;;;;;;5.95;2.22;;;;;;;;;;5015806;28;20036;-70
2021/09/20 03:37:40;;;;;;;7.68;1.90;;;;;;;;;;5016041;28;20045;-72
2021/09/20 03:40:07;;;;;;;7.15;2.10;;;;;;;;;;5016046;28;20524;-73
2021/09/20 03:42:33;;;;;;;6.45;2.63;;;;;;;;;;5016102;28;20026;-72
2021/09/20 03:44:59;;;;;;;6.50;2.80;;;;;;;;;;5015697;28;20101;-72
2021/09/20 03:47:25;;;;;;;6.68;3.00;;;;;;;;;;5015522;28;20021;-72
2021/09/20 03:49:51;;;;;;;7.40;3.58;;;;;;;;;;5015503;28;20557;-71
2021/09/20 03:52:18;;;;;;;7.30;2.30;;;;;;;;;;5016177;28;20025;-73
2021/09/20 03:54:44;;;;;;;4.95;2.10;;;;;;;;;;5014834;28;20443;-73
2021/09/20 03:57:10;;;;;;;6.32;2.67;;;;;;;;;;5015866;28;20029;-67
2021/09/20 03:59:36;;;;;;;8.18;2.88;;;;;;;;;;5015541;28;20085;-72
2021/09/20 04:02:02;;;;;;;4.13;2.13;;;;;;;;;;5015895;28;20029;-72
2021/09/20 04:04:28;;;;;;;9.43;2.50;;;;;;;;;;5015773;28;20045;-72
2021/09/20 04:06:54;;;;;;;2.80;2.00;;;;;;;;;;5015488;28;20076;-72
2021/09/20 04:09:22;;;;;;;8.13;2.10;;;;;;;;;;5015599;28;20493;-74
2021/09/20 04:11:48;;;;;;;3.13;2.15;;;;;;;;;;5015896;28;20026;-73
2021/09/20 04:14:14;;;;;;;7.22;2.30;;;;;;;;;;5015819;28;20036;-72
2021/09/20 04:16:40;;;;;;;5.72;2.40;;;;;;;;;;5015597;28;20048;-72
2021/09/20 04:19:06;;;;;;;10.93;2.75;;;;;;;;;;5015463;28;20025;-69
2021/09/20 04:21:32;;;;;;;6.05;2.47;;;;;;;;;;5015292;28;20026;-73
2021/09/20 04:23:58;;;;;;;7.38;2.03;;;;;;;;;;5015529;28;20030;-72
2021/09/20 04:26:24;;;;;;;4.07;2.70;;;;;;;;;;5015308;28;20025;-69
2021/09/20 04:28:50;;;;;;;4.15;2.42;;;;;;;;;;5015335;28;20106;-73
2021/09/20 04:31:17;;;;;;;7.60;2.10;;;;;;;;;;5015355;28;20085;-73
2021/09/20 04:33:43;;;;;;;4.72;2.15;;;;;;;;;;5015402;28;20036;-73
2021/09/20 04:36:09;;;;;;;5.97;2.28;;;;;;;;;;5015428;28;20080;-74
2021/09/20 04:38:35;;;;;;;6.43;2.45;;;;;;;;;;5015671;28;20436;-73
2021/09/20 04:41:01;;;;;;;9.20;2.38;;;;;;;;;;5015444;28;20088;-69
2021/09/20 04:43:27;;;;;;;9.50;2.20;;;;;;;;;;5015685;28;20105;-73
2021/09/20 04:45:53;;;;;;;7.15;2.40;;;;;;;;;;5015046;28;20049;-73
2021/09/20 04:48:19;;;;;;;3.90;2.08;;;;;;;;;;5014795;28;20029;-72
2021/09/20 04:50:46;;;;;;;5.80;2.08;;;;;;;;;;5015006;28;20092;-73
2021/09/20 04:53:14;;;;;;;5.32;2.13;;;;;;;;;;5015242;28;20049;-74
2021/09/20 04:55:40;;;;;;;7.05;2.47;;;;;;;;;;5014994;28;20480;-68
2021/09/20 04:58:07;;;;;;;6.72;2.63;;;;;;;;;;5014981;28;20026;-73
2021/09/20 05:00:34;;;;;;;7.50;2.72;;;;;;;;;;5015232;28;20121;-73
2021/09/20 05:03:00;;;;;;;6.78;3.72;;;;;;;;;;5014686;28;20033;-71
2021/09/20 05:05:26;;;;;;;6.15;2.10;;;;;;;;;;5014935;28;20029;-72
2021/09/20 05:07:52;;;;;;;7.93;3.47;;;;;;;;;;5014899;28;20084;-72
2021/09/20 05:10:19;;;;;;;7.40;2.65;;;;;;;;;;5015099;28;20128;-72
2021/09/20 05:12:46;;;;;;;6.22;2.20;;;;;;;;;;5015340;28;20025;-73
2021/09/20 05:15:13;;;;;;;8.70;2.55;;;;;;;;;;5008287;28;20140;-74
2021/09/20 05:17:39;;;;;;;8.45;2.45;;;;;;;;;;5004282;28;20033;-73
2021/09/20 05:20:06;;;;;;;7.10;3.53;;;;;;;;;;5014970;28;20101;-70
2021/09/20 05:22:32;;;;;;;6.13;2.50;;;;;;;;;;5014913;28;20058;-73
2021/09/20 05:24:58;;;;;;;5.47;2.80;;;;;;;;;;5015033;28;20018;-72
2021/09/20 05:27:28;;;;;;;10.27;2.58;;;;;;;;;;5014916;28;20061;-66
2021/09/20 05:29:54;;;;;;;10.52;2.50;;;;;;;;;;5015317;28;20503;-72
2021/09/20 05:32:20;;;;;;;8.38;2.28;;;;;;;;;;5014996;28;20030;-72
2021/09/20 05:34:46;;;;;;;4.22;2.33;;;;;;;;;;5015355;28;20496;-69
2021/09/20 05:37:12;;;;;;;7.78;2.55;;;;;;;;;;5014758;28;20029;-72
2021/09/20 05:39:38;;;;;;;3.55;2.30;;;;;;;;;;5014883;28;20041;-73
2021/09/20 05:42:04;;;;;;;6.45;2.33;;;;;;;;;;5014774;28;20057;-70
2021/09/20 05:44:30;;;;;;;11.35;2.25;;;;;;;;;;5013154;28;20029;-73
2021/09/20 05:46:56;;;;;;;4.80;2.20;;;;;;;;;;5014618;28;20362;-73
2021/09/20 05:49:22;;;;;;;6.57;2.20;;;;;;;;;;5014895;28;20630;-70
2021/09/20 05:51:48;;;;;;;7.93;2.45;;;;;;;;;;5014327;28;20084;-72
2021/09/20 05:54:14;;;;;;;7.35;2.40;;;;;;;;;;5014966;28;20029;-72
2021/09/20 05:56:41;;;;;;;7.18;2.33;;;;;;;;;;5014411;28;20042;-73
2021/09/20 05:59:07;;;;;;;3.88;2.42;;;;;;;;;;5012854;28;20095;-74
2021/09/20 06:01:33;;;;;;;6.80;2.55;;;;;;;;;;5014322;28;20044;-73
2021/09/20 06:03:59;;;;;;;6.47;2.13;;;;;;;;;;5013970;28;20538;-71
2021/09/20 06:06:25;;;;;;;9.02;3.03;;;;;;;;;;5014308;28;20053;-72
2021/09/20 06:08:51;;;;;;;10.93;3.78;;;;;;;;;;5013871;28;20101;-72
2021/09/20 06:11:18;;;;;;;7.63;3.03;;;;;;;;;;5014531;28;20022;-68
2021/09/20 06:13:44;;;;;;;9.10;2.70;;;;;;;;;;5015729;28;20032;-72
2021/09/20 06:16:10;;;;;;;8.68;3.28;;;;;;;;;;5018538;28;20034;-72
2021/09/20 06:18:36;;;;;;;7.93;2.97;;;;;;;;;;5017668;28;20025;-71
2021/09/20 06:21:02;;;;;;;4.82;2.90;;;;;;;;;;5017376;28;20045;-70
2021/09/20 06:23:28;;;;;;;5.55;3.00;;;;;;;;;;5016976;28;20450;-73
2021/09/20 06:25:55;;;;;;;8.27;3.65;;;;;;;;;;5015004;28;20507;-73
2021/09/20 06:28:21;;;;;;;5.07;2.92;;;;;;;;;;5007765;28;20035;-67
2021/09/20 06:30:48;;;;;;;11.20;3.50;;;;;;;;;;4995367;28;20050;-74
2021/09/20 06:33:14;;;;;;;11.48;2.90;;;;;;;;;;4995358;28;20034;-74
2021/09/20 06:35:40;;;;;;;11.40;3.58;;;;;;;;;;4994634;28;20026;-73
2021/09/20 06:38:06;;;;;;;12.85;3.40;;;;;;;;;;4995069;28;20047;-73
2021/09/20 06:40:32;;;;;;;9.38;3.40;;;;;;;;;;5002291;28;20537;-73
2021/09/20 06:42:58;;;;;;;18.75;3.97;;;;;;;;;;5014348;28;20033;-72
2021/09/20 06:45:24;;;;;;;15.68;3.42;;;;;;;;;;5014718;28;20426;-76
2021/09/20 06:47:51;;;;;;;13.27;3.58;;;;;;;;;;5014839;28;20378;-76
2021/09/20 06:50:17;;;;;;;9.43;3.13;;;;;;;;;;5014332;28;20071;-73
2021/09/20 06:52:43;;;;;;;8.88;4.28;;;;;;;;;;5014653;28;20492;-74
2021/09/20 06:55:10;;;;;;;6.80;3.00;;;;;;;;;;5014544;28;20034;-74
2021/09/20 06:57:37;;;;;;;6.13;3.00;;;;;;;;;;5014728;28;20492;-69
2021/09/20 07:00:04;;;;;;;14.07;3.20;;;;;;;;;;5014290;28;20064;-73
2021/09/20 07:02:31;;;;;;;11.40;3.45;;;;;;;;;;5014763;28;20137;-73
2021/09/20 07:04:57;;;;;;;11.30;3.53;;;;;;;;;;5019741;28;20097;-75
2021/09/20 07:07:24;;;;;;;8.55;3.78;;;;;;;;;;5014579;28;20546;-73
2021/09/20 07:09:50;;;;;;;7.72;3.03;;;;;;;;;;5014022;28;20053;-75
2021/09/20 07:12:16;;;;;;;6.80;3.30;;;;;;;;;;5016111;28;20034;-74
2021/09/20 07:14:42;;;;;;;6.97;3.05;;;;;;;;;;5014965;28;20108;-70
2021/09/20 07:17:08;;;;;;;13.10;3.53;;;;;;;;;;5006442;28;20105;-72
2021/09/20 07:19:35;;;;;;;13.32;4.07;;;;;;;;;;4995712;28;20030;-73
2021/09/20 07:22:01;;;;;;;7.07;3.65;;;;;;;;;;4994542;28;20602;-69
2021/09/20 07:24:27;;;;;;;10.57;4.35;;;;;;;;;;4995361;28;20041;-72
2021/09/20 07:26:53;;;;;;;7.93;4.10;;;;;;;;;;4996417;28;20546;-72
2021/09/20 07:29:20;;;;;;;6.47;3.22;;;;;;;;;;4995802;28;20058;-72
2021/09/20 07:31:46;;;;;;;7.43;3.67;;;;;;;;;;4993949;28;20371;-72
2021/09/20 07:34:12;;;;;;;6.57;3.90;;;;;;;;;;4993275;28;20037;-68
2021/09/20 07:36:38;;;;;;;11.15;4.57;;;;;;;;;;4993454;28;20054;-72
2021/09/20 07:39:04;;;;;;;6.18;3.00;;;;;;;;;;4993670;28;20031;-72
2021/09/20 07:41:31;;;;;;;5.50;3.00;;;;;;;;;;4993816;28;20037;-74
2021/09/20 07:43:57;;;;;;;7.63;3.35;;;;;;;;;;4993516;28;20034;-72
2021/09/20 07:46:23;;;;;;;4.80;2.67;;;;;;;;;;4994399;28;20029;-72
2021/09/20 07:48:50;;;;;;;6.00;3.75;;;;;;;;;;4994503;28;20484;-69
2021/09/20 07:51:16;;;;;;;6.40;2.70;;;;;;;;;;4995661;28;20032;-75
2021/09/20 07:53:43;;;;;;;5.70;2.85;;;;;;;;;;4995848;28;20118;-73
2021/09/20 07:56:09;;;;;;;10.32;2.92;;;;;;;;;;4995210;28;20033;-67
2021/09/20 07:58:35;;;;;;;5.35;2.72;;;;;;;;;;4993903;28;20505;-74
2021/09/20 08:01:02;;;;;;;10.52;3.45;;;;;;;;;;4993753;28;20061;-72
2021/09/20 08:03:28;;;;;;;8.68;2.95;;;;;;;;;;4994896;28;20532;-66
2021/09/20 08:05:54;;;;;;;4.95;2.97;;;;;;;;;;4996911;28;20022;-73
2021/09/20 08:08:21;;;;;;;6.40;2.83;;;;;;;;;;4995761;28;20054;-73
2021/09/20 08:10:47;;;;;;;5.53;2.72;;;;;;;;;;5001797;28;20018;-66
2021/09/20 08:13:15;;;;;;;5.60;3.13;;;;;;;;;;5003955;28;20112;-74
2021/09/20 08:15:42;;;;;;;8.38;3.42;;;;;;;;;;5002771;28;20053;-70
2021/09/20 08:18:08;;;;;;;8.50;4.53;;;;;;;;;;5012153;28;20026;-69
2021/09/20 08:20:35;;;;;;;8.90;4.65;;;;;;;;;;5020270;28;20030;-68
2021/09/20 08:23:01;;;;;;;10.23;3.70;;;;;;;;;;5020392;28;20033;-75
2021/09/20 08:25:27;;;;;;;9.95;4.07;;;;;;;;;;5013255;28;20030;-75
2021/09/20 08:27:54;;;;;;;6.20;3.45;;;;;;;;;;5014207;28;20030;-69
2021/09/20 08:30:21;;;;;;;10.20;3.80;;;;;;;;;;5013687;28;20171;-74
2021/09/20 08:32:47;;;;;;;9.38;3.85;;;;;;;;;;5016420;28;20073;-72
2021/09/20 08:35:13;;;;;;;8.68;3.63;;;;;;;;;;5016654;28;20042;-73
2021/09/20 08:37:39;;;;;;;7.75;4.75;;;;;;;;;;5013265;28;20034;-72
2021/09/20 08:40:06;;;;;;;7.13;3.67;;;;;;;;;;5014958;28;20026;-74
2021/09/20 08:42:34;;;;;;;9.13;3.38;;;;;;;;;;5015230;28;20040;-74
2021/09/20 08:45:00;;;;;;;7.10;3.70;;;;;;;;;;5015915;28;20026;-73
2021/09/20 08:47:27;;;;;;;6.38;3.97;;;;;;;;;;5015828;28;20034;-74
2021/09/20 08:49:53;;;;;;;9.02;4.00;;;;;;;;;;5017005;28;20045;-74
2021/09/20 08:52:23;;;;;;;7.13;4.45;;;;;;;;;;5016885;28;20044;-67
2021/09/20 08:54:51;;;;;;;7.00;4.20;;;;;;;;;;5015193;28;20050;-73
2021/09/20 08:57:17;;;;;;;6.72;4.00;;;;;;;;;;5011629;28;20481;-73
2021/09/20 08:59:44;;;;;;;7.43;3.40;;;;;;;;;;5013110;28;20056;-69
2021/09/20 09:02:13;;;;;;;4.00;2.78;;;;;;;;;;5015192;28;20040;-75
2021/09/20 09:04:39;;;;;;;5.15;2.78;;;;;;;;;;5007722;28;20026;-71
2021/09/20 09:07:07;;;;;;;5.35;3.20;;;;;;;;;;4990858;28;20037;-71
2021/09/20 09:09:38;;;;;;;4.25;2.35;;;;;;;;;;4991010;28;20768;-75
2021/09/20 09:12:12;;;;;;;4.80;2.60;;;;;;;;;;4991147;28;20397;-74
2021/09/20 09:14:44;;;;;;;4.30;2.42;;;;;;;;;;4991654;28;20034;-74
2021/09/20 09:17:16;;;;;;;3.75;2.58;;;;;;;;;;4992038;28;20027;-74
2021/09/20 09:19:42;;;;;;;9.35;2.80;;;;;;;;;;4994065;28;20105;-72
2021/09/20 09:22:09;;;;;;;3.78;2.45;;;;;;;;;;4992631;28;20099;-74
2021/09/20 09:24:35;;;;;;;3.78;2.42;;;;;;;;;;4990244;28;20053;-73
2021/09/20 09:27:02;;;;;;;2.55;2.25;;;;;;;;;;4990364;28;20022;-75
2021/09/20 09:29:29;;;;;;;3.53;2.40;;;;;;;;;;4995584;28;20034;-71
2021/09/20 09:31:56;;;;;;;6.30;2.38;;;;;;;;;;4996463;28;20048;-74
2021/09/20 09:34:25;;;;;;;5.10;2.58;;;;;;;;;;4997754;28;20057;-71
2021/09/20 09:36:51;;;;;;;4.13;2.35;;;;;;;;;;4997634;28;20026;-74
2021/09/20 09:39:30;;;;;;;3.55;2.28;;;;;;;;;;4994341;28;20061;-73
2021/09/20 09:41:56;;;;;;;3.63;2.00;;;;;;;;;;5006666;28;20033;-70
2021/09/20 09:44:28;;;;;;;4.93;2.20;;;;;;;;;;5012966;28;20046;-74
2021/09/20 09:46:54;;;;;;;3.63;1.92;;;;;;;;;;5012390;28;20485;-74
2021/09/20 09:49:21;;;;;;;4.40;2.60;;;;;;;;;;5014799;28;20560;-73
2021/09/20 09:51:58;;;;;;;4.22;2.53;;;;;;;;;;5016369;28;20029;-72
2021/09/20 09:54:33;;;;;;;3.65;1.92;;;;;;;;;;5016324;28;20376;-74
2021/09/20 09:57:13;;;;;;;3.03;1.80;;;;;;;;;;5017492;28;20025;-67
2021/09/20 09:59:40;;;;;;;3.78;1.85;;;;;;;;;;5016483;28;20041;-75
2021/09/20 10:02:22;;;;;;;6.95;2.10;;;;;;;;;;5013471;28;20101;-73
2021/09/20 10:04:51;;;;;;;4.80;2.47;;;;;;;;;;5010956;28;20041;-73
2021/09/20 10:07:22;;;;;;;5.80;2.17;;;;;;;;;;5002094;28;20484;-74
2021/09/20 10:09:48;;;;;;;6.30;2.85;;;;;;;;;;5012551;28;20053;-71
2021/09/20 10:12:14;;;;;;;5.60;2.35;;;;;;;;;;5013094;28;20022;-73
2021/09/20 10:14:41;;;;;;;4.53;2.33;;;;;;;;;;5012819;28;20025;-74
2021/09/20 10:17:08;;;;;;;5.32;2.80;;;;;;;;;;5012752;28;20030;-74
2021/09/20 10:19:35;;;;;;;2.97;2.20;;;;;;;;;;5012746;28;20101;-73
2021/09/20 10:22:01;;;;;;;3.67;2.30;;;;;;;;;;5012452;28;20502;-72
2021/09/20 10:24:28;;;;;;;2.42;2.22;;;;;;;;;;5012583;28;20077;-72
2021/09/20 10:26:54;;;;;;;3.08;2.45;;;;;;;;;;5012479;28;20034;-72
2021/09/20 10:29:20;;;;;;;7.85;2.20;;;;;;;;;;5012727;28;20026;-73
2021/09/20 10:31:49;;;;;;;2.85;1.90;;;;;;;;;;5011314;28;20105;-73
2021/09/20 10:34:21;;;;;;;4.82;2.50;;;;;;;;;;5012509;28;20030;-73
2021/09/20 10:36:59;;;;;;;4.50;2.65;;;;;;;;;;5012383;28;20036;-73
2021/09/20 10:39:44;;;;;;;3.63;2.15;;;;;;;;;;5012219;28;20105;-74
2021/09/20 10:42:11;;;;;;;3.13;2.08;;;;;;;;;;4997836;28;20037;-73
2021/09/20 10:44:38;;;;;;;4.82;2.50;;;;;;;;;;4992329;28;20027;-75
2021/09/20 10:47:15;;;;;;;5.05;2.30;;;;;;;;;;4992292;28;20031;-73
2021/09/20 10:49:48;;;;;;;4.50;2.22;;;;;;;;;;4992680;28;20030;-74
2021/09/20 10:52:15;;;;;;;4.90;2.10;;;;;;;;;;4992724;28;20531;-73
2021/09/20 10:55:01;;;;;;;5.22;2.30;;;;;;;;;;4992848;28;20030;-71
2021/09/20 10:57:27;;;;;;;5.57;2.45;;;;;;;;;;4997639;28;20026;-72
2021/09/20 11:00:13;;;;;;;3.05;2.10;;;;;;;;;;4998038;28;20608;-71
2021/09/20 11:02:39;;;;;;;4.60;2.00;;;;;;;;;;5000589;28;20094;-71
2021/09/20 11:05:09;;;;;;;6.45;2.30;;;;;;;;;;4998910;28;20027;-75
2021/09/20 11:07:44;;;;;;;3.35;2.60;;;;;;;;;;4999149;28;20034;-73
2021/09/20 11:10:10;;;;;;;4.78;2.50;;;;;;;;;;4996986;28;20026;-71
2021/09/20 11:12:57;;;;;;;5.53;2.88;;;;;;;;;;4996754;28;20026;-72
2021/09/20 11:15:23;;;;;;;5.68;2.47;;;;;;;;;;4994784;28;20033;-75
2021/09/20 11:17:50;;;;;;;4.50;3.42;;;;;;;;;;4996566;28;20034;-73
2021/09/20 11:20:25;;;;;;;4.38;2.60;;;;;;;;;;4998399;28;20033;-68
2021/09/20 11:22:51;;;;;;;;;;;;;;;;;;4997011;28;20080;-73
2021/09/20 11:25:18;;;;;;;4.43;2.35;;;;;;;;;;5001145;28;19910;-72
2021/09/20 11:27:45;;;;;;;5.15;2.20;;;;;;;;;;5001560;28;20105;-73
2021/09/20 11:30:12;;;;;;;5.57;2.35;;;;;;;;;;5002537;28;20022;-70
2021/09/20 11:32:48;;;;;;;7.07;2.53;;;;;;;;;;5004426;28;20113;-70
2021/09/20 11:35:15;;;;;;;10.88;2.75;;;;;;;;;;4998659;28;20022;-73
2021/09/20 11:37:41;;;;;;;5.25;2.72;;;;;;;;;;4996606;28;20494;-74
2021/09/20 11:40:07;;;;;;;4.25;2.58;;;;;;;;;;4994703;28;20041;-74
2021/09/20 11:42:36;;;;;;;3.85;2.03;;;;;;;;;;5011801;28;20056;-71
2021/09/20 11:45:05;;;;;;;6.47;2.63;;;;;;;;;;5014644;28;20431;-71
2021/09/20 11:47:34;;;;;;;7.82;2.60;;;;;;;;;;5014927;28;20531;-70
2021/09/20 11:50:04;;;;;;;6.95;2.90;;;;;;;;;;5013097;28;20504;-72
2021/09/20 11:52:35;;;;;;;8.40;2.88;;;;;;;;;;5016105;28;20059;-73
2021/09/20 11:55:01;;;;;;;6.32;2.70;;;;;;;;;;5018564;28;20519;-74
2021/09/20 11:57:30;;;;;;;6.10;3.15;;;;;;;;;;5016130;28;20101;-73
2021/09/20 11:59:58;;;;;;;6.22;2.92;;;;;;;;;;5016173;28;20046;-73
2021/09/20 12:02:31;;;;;;;7.10;2.97;;;;;;;;;;5015385;28;20048;-69
2021/09/20 12:04:57;;;;;;;5.70;2.90;;;;;;;;;;5016375;28;20049;-70
2021/09/20 12:07:27;;;;;;;5.38;2.38;;;;;;;;;;5015030;28;20168;-70
2021/09/20 12:09:54;;;;;;;4.55;2.63;;;;;;;;;;5015146;28;20124;-71
2021/09/20 12:12:20;;;;;;;3.88;2.35;;;;;;;;;;5014235;28;20034;-70
2021/09/20 12:15:04;;;;;;;6.28;2.70;;;;;;;;;;5015516;28;20121;-67
2021/09/20 12:17:49;;;;;;;5.88;2.65;;;;;;;;;;5013652;28;20021;-72
2021/09/20 12:20:16;;;;;;;5.80;2.90;;;;;;;;;;5013390;28;20109;-74
2021/09/20 12:22:43;;;;;;;6.13;3.30;;;;;;;;;;5013512;28;20030;-72
2021/09/20 12:25:22;;;;;;;8.40;3.35;;;;;;;;;;5011934;28;20022;-72
2021/09/20 12:27:49;;;;;;;5.93;2.83;;;;;;;;;;5013425;28;20076;-69
2021/09/20 12:30:16;;;;;;;5.35;3.15;;;;;;;;;;5012829;28;20030;-74
2021/09/20 12:32:42;;;;;;;4.85;3.15;;;;;;;;;;5012813;28;20449;-72
2021/09/20 12:35:08;;;;;;;6.57;3.00;;;;;;;;;;5012850;28;20029;-73
2021/09/20 12:37:34;;;;;;;6.13;2.88;;;;;;;;;;5012510;28;20029;-73
2021/09/20 12:40:16;;;;;;;4.90;3.10;;;;;;;;;;5012682;28;20062;-73
2021/09/20 12:42:42;;;;;;;5.57;2.67;;;;;;;;;;4994154;28;20027;-74
2021/09/20 12:45:16;;;;;;;5.65;2.75;;;;;;;;;;4993340;28;20769;-68
2021/09/20 12:47:42;;;;;;;4.13;3.00;;;;;;;;;;4993490;28;20442;-73
2021/09/20 12:50:12;;;;;;;5.75;2.50;;;;;;;;;;4993714;28;20041;-75
2021/09/20 12:52:41;;;;;;;6.30;3.45;;;;;;;;;;4993850;28;20046;-73
2021/09/20 12:55:07;;;;;;;7.18;2.97;;;;;;;;;;4993577;28;20023;-73
2021/09/20 12:57:34;;;;;;;4.50;2.60;;;;;;;;;;4993176;28;20533;-73
2021/09/20 13:00:04;;;;;;;5.22;3.47;;;;;;;;;;4993435;28;20408;-73
2021/09/20 13:02:31;;;;;;;7.97;3.03;;;;;;;;;;4994430;28;20505;-74
2021/09/20 13:05:00;;;;;;;5.40;2.97;;;;;;;;;;4993948;28;20041;-76
2021/09/20 13:07:30;;;;;;;7.65;3.25;;;;;;;;;;4991534;28;20073;-71
2021/09/20 13:09:57;;;;;;;5.70;3.17;;;;;;;;;;4993841;28;20022;-76
2021/09/20 13:12:31;;;;;;;7.28;2.97;;;;;;;;;;4997147;28;20034;-77
2021/09/20 13:14:59;;;;;;;9.60;3.17;;;;;;;;;;4997934;28;20027;-69
2021/09/20 13:17:31;;;;;;;6.20;3.20;;;;;;;;;;5002176;28;20033;-73
2021/09/20 13:20:09;;;;;;;7.55;4.05;;;;;;;;;;5005012;28;20049;-66
2021/09/20 13:22:47;;;;;;;6.80;3.55;;;;;;;;;;5005245;28;20367;-69
2021/09/20 13:25:24;;;;;;;6.82;3.85;;;;;;;;;;5025749;28;20113;-70
2021/09/20 13:27:55;;;;;;;8.23;3.42;;;;;;;;;;5027818;28;20033;-66
2021/09/20 13:30:21;;;;;;;8.02;3.70;;;;;;;;;;5028165;28;20052;-72
2021/09/20 13:32:47;;;;;;;7.40;4.00;;;;;;;;;;5028428;28;20022;-72
2021/09/20 13:35:28;;;;;;;6.25;3.70;;;;;;;;;;5027957;28;20052;-69
2021/09/20 13:37:55;;;;;;;8.65;3.95;;;;;;;;;;5027744;28;20053;-66
2021/09/20 13:40:21;;;;;;;7.35;3.33;;;;;;;;;;5028117;28;20026;-65
2021/09/20 13:42:48;;;;;;;6.43;3.33;;;;;;;;;;5027341;28;20072;-70
2021/09/20 13:45:14;;;;;;;8.05;3.45;;;;;;;;;;5027202;28;20026;-66
2021/09/20 13:47:41;;;;;;;7.25;2.80;;;;;;;;;;5029080;28;20018;-69
2021/09/20 13:50:08;;;;;;;6.85;4.22;;;;;;;;;;5027955;28;20026;-73
2021/09/20 13:52:34;;;;;;;10.73;3.53;;;;;;;;;;5020573;28;20040;-72
2021/09/20 13:55:00;;;;;;;6.63;3.20;;;;;;;;;;5017332;28;20412;-72
2021/09/20 13:57:26;;;;;;;16.25;3.00;;;;;;;;;;5021076;28;20045;-68
2021/09/20 13:59:54;;;;;;;5.50;2.65;;;;;;;;;;5016865;28;20054;-72
2021/09/20 14:02:24;;;;;;;6.32;3.13;;;;;;;;;;5018243;28;20038;-73
2021/09/20 14:04:50;;;;;;;5.38;2.55;;;;;;;;;;5026895;28;20026;-69
2021/09/20 14:07:16;;;;;;;5.97;2.45;;;;;;;;;;5020661;28;20033;-72
2021/09/20 14:09:42;;;;;;;6.25;2.47;;;;;;;;;;5020496;28;20061;-71
2021/09/20 14:12:09;;;;;;;6.85;2.60;;;;;;;;;;5025733;28;20018;-69
2021/09/20 14:14:35;;;;;;;6.68;3.00;;;;;;;;;;5026975;28;20053;-70
2021/09/20 14:17:01;;;;;;;7.35;2.80;;;;;;;;;;5028752;28;20033;-65
2021/09/20 14:19:27;;;;;;;4.35;2.55;;;;;;;;;;5022374;28;20141;-77
2021/09/20 14:21:53;;;;;;;5.75;3.40;;;;;;;;;;5023340;28;20030;-75
2021/09/20 14:24:19;;;;;;;4.57;2.38;;;;;;;;;;5020554;28;20090;-69
2021/09/20 14:26:45;;;;;;;7.82;2.75;;;;;;;;;;5020710;28;20029;-73
2021/09/20 14:29:12;;;;;;;4.07;2.72;;;;;;;;;;5021217;28;20078;-70
2021/09/20 14:31:38;;;;;;;4.22;3.00;;;;;;;;;;5017489;28;20045;-72
2021/09/20 14:34:04;;;;;;;5.43;2.20;;;;;;;;;;5018092;28;20022;-72
2021/09/20 14:36:30;;;;;;;3.53;1.70;;;;;;;;;;5016272;28;20090;-65
2021/09/20 14:38:56;;;;;;;3.78;2.10;;;;;;;;;;5005880;28;20374;-72
2021/09/20 14:41:23;;;;;;;2.47;1.70;;;;;;;;;;5017293;28;20485;-72
2021/09/20 14:43:49;;;;;;;2.50;1.90;;;;;;;;;;5018104;28;20026;-73